sensor_id;sensor_type;location;lat;lon;timestamp;P1;durP1;ratioP1;P2;durP2;ratioP2
48028;SDS011;33808;37.368;127.108;2023-02-19T00:01:40;5.72;;;2.63;;
48028;SDS011;33808;37.368;127.108;2023-02-19T00:06:46;3.45;;;2.05;;
48028;SDS011;33808;37.368;127.108;2023-02-19T00:09:16;4.22;;;2.30;;
48028;SDS011;33808;37.368;127.108;2023-02-19T00:11:47;3.13;;;2.35;;
48028;SDS011;33808;37.368;127.108;2023-02-19T00:14:18;4.13;;;2.35;;
48028;SDS011;33808;37.368;127.108;2023-02-19T00:16:49;3.95;;;2.47;;
48028;SDS011;33808;37.368;127.108;2023-02-19T00:19:19;3.72;;;2.10;;
48028;SDS011;33808;37.368;127.108;2023-02-19T00:21:52;2.75;;;2.03;;
48028;SDS011;33808;37.368;127.108;2023-02-19T00:24:22;3.30;;;2.03;;
48028;SDS011;33808;37.368;127.108;2023-02-19T00:26:51;3.90;;;2.40;;
48028;SDS011;33808;37.368;127.108;2023-02-19T00:29:21;2.60;;;1.98;;
48028;SDS011;33808;37.368;127.108;2023-02-19T00:31:52;2.53;;;2.00;;
48028;SDS011;33808;37.368;127.108;2023-02-19T00:34:22;4.45;;;1.80;;
48028;SDS011;33808;37.368;127.108;2023-02-19T00:36:51;3.55;;;2.08;;
48028;SDS011;33808;37.368;127.108;2023-02-19T00:40:20;2.35;;;1.85;;
48028;SDS011;33808;37.368;127.108;2023-02-19T00:43:09;3.05;;;2.08;;
48028;SDS011;33808;37.368;127.108;2023-02-19T00:46:44;2.83;;;1.77;;
48028;SDS011;33808;37.368;127.108;2023-02-19T00:50:11;2.58;;;2.00;;
48028;SDS011;33808;37.368;127.108;2023-02-19T00:53:40;5.03;;;1.98;;
48028;SDS011;33808;37.368;127.108;2023-02-19T00:57:09;2.80;;;1.70;;
48028;SDS011;33808;37.368;127.108;2023-02-19T01:00:38;2.63;;;2.08;;
48028;SDS011;33808;37.368;127.108;2023-02-19T01:03:07;3.38;;;2.10;;
48028;SDS011;33808;37.368;127.108;2023-02-19T01:05:37;2.35;;;1.85;;
48028;SDS011;33808;37.368;127.108;2023-02-19T01:08:07;2.92;;;2.00;;
48028;SDS011;33808;37.368;127.108;2023-02-19T01:10:37;2.63;;;2.00;;
48028;SDS011;33808;37.368;127.108;2023-02-19T01:13:06;2.55;;;1.80;;
48028;SDS011;33808;37.368;127.108;2023-02-19T01:16:35;3.50;;;1.60;;
48028;SDS011;33808;37.368;127.108;2023-02-19T01:20:04;2.78;;;2.08;;
48028;SDS011;33808;37.368;127.108;2023-02-19T01:23:33;3.17;;;1.95;;
48028;SDS011;33808;37.368;127.108;2023-02-19T01:27:02;2.55;;;1.60;;
48028;SDS011;33808;37.368;127.108;2023-02-19T01:30:32;2.47;;;1.67;;
48028;SDS011;33808;37.368;127.108;2023-02-19T01:33:04;2.85;;;1.48;;
48028;SDS011;33808;37.368;127.108;2023-02-19T01:35:38;3.08;;;1.48;;
48028;SDS011;33808;37.368;127.108;2023-02-19T01:38:08;1.90;;;1.35;;
48028;SDS011;33808;37.368;127.108;2023-02-19T01:40:38;2.00;;;1.40;;
48028;SDS011;33808;37.368;127.108;2023-02-19T01:43:14;2.08;;;1.50;;
48028;SDS011;33808;37.368;127.108;2023-02-19T01:45:44;1.77;;;1.63;;
48028;SDS011;33808;37.368;127.108;2023-02-19T01:48:22;2.13;;;1.65;;
48028;SDS011;33808;37.368;127.108;2023-02-19T01:50:57;1.55;;;1.27;;
48028;SDS011;33808;37.368;127.108;2023-02-19T01:53:35;1.80;;;1.52;;
48028;SDS011;33808;37.368;127.108;2023-02-19T01:56:05;2.13;;;1.58;;
48028;SDS011;33808;37.368;127.108;2023-02-19T01:58:38;1.85;;;1.67;;
48028;SDS011;33808;37.368;127.108;2023-02-19T02:01:09;2.35;;;1.80;;
48028;SDS011;33808;37.368;127.108;2023-02-19T02:03:39;2.00;;;1.60;;
48028;SDS011;33808;37.368;127.108;2023-02-19T02:06:22;2.40;;;1.95;;
48028;SDS011;33808;37.368;127.108;2023-02-19T02:08:55;1.80;;;1.63;;
48028;SDS011;33808;37.368;127.108;2023-02-19T02:11:45;2.13;;;1.65;;
48028;SDS011;33808;37.368;127.108;2023-02-19T02:14:18;1.95;;;1.30;;
48028;SDS011;33808;37.368;127.108;2023-02-19T02:21:19;2.10;;;1.50;;
48028;SDS011;33808;37.368;127.108;2023-02-19T02:27:40;1.98;;;1.52;;
48028;SDS011;33808;37.368;127.108;2023-02-19T02:31:16;2.30;;;1.05;;
48028;SDS011;33808;37.368;127.108;2023-02-19T02:34:48;1.10;;;1.00;;
48028;SDS011;33808;37.368;127.108;2023-02-19T02:38:16;1.50;;;1.30;;
48028;SDS011;33808;37.368;127.108;2023-02-19T02:41:47;2.40;;;1.70;;
48028;SDS011;33808;37.368;127.108;2023-02-19T02:56:58;1.73;;;1.52;;
48028;SDS011;33808;37.368;127.108;2023-02-19T02:59:32;2.40;;;1.77;;
48028;SDS011;33808;37.368;127.108;2023-02-19T03:02:10;2.40;;;1.70;;
48028;SDS011;33808;37.368;127.108;2023-02-19T03:08:06;4.55;;;2.20;;
48028;SDS011;33808;37.368;127.108;2023-02-19T03:10:48;2.67;;;1.88;;
48028;SDS011;33808;37.368;127.108;2023-02-19T03:13:56;2.50;;;2.30;;
48028;SDS011;33808;37.368;127.108;2023-02-19T03:16:53;3.63;;;2.60;;
48028;SDS011;33808;37.368;127.108;2023-02-19T03:19:48;2.92;;;2.22;;
48028;SDS011;33808;37.368;127.108;2023-02-19T03:22:21;2.20;;;1.85;;
48028;SDS011;33808;37.368;127.108;2023-02-19T03:25:49;2.38;;;1.98;;
48028;SDS011;33808;37.368;127.108;2023-02-19T03:29:22;3.65;;;2.50;;
48028;SDS011;33808;37.368;127.108;2023-02-19T03:32:51;2.40;;;1.85;;
48028;SDS011;33808;37.368;127.108;2023-02-19T03:36:18;2.72;;;1.70;;
48028;SDS011;33808;37.368;127.108;2023-02-19T03:39:01;1.67;;;1.55;;
48028;SDS011;33808;37.368;127.108;2023-02-19T03:48:32;2.47;;;1.98;;
48028;SDS011;33808;37.368;127.108;2023-02-19T03:55:09;1.92;;;1.40;;
48028;SDS011;33808;37.368;127.108;2023-02-19T04:02:02;2.03;;;1.65;;
48028;SDS011;33808;37.368;127.108;2023-02-19T04:05:09;1.70;;;1.60;;
48028;SDS011;33808;37.368;127.108;2023-02-19T04:08:39;1.48;;;1.25;;
48028;SDS011;33808;37.368;127.108;2023-02-19T04:12:07;2.25;;;1.55;;
48028;SDS011;33808;37.368;127.108;2023-02-19T04:15:36;1.65;;;1.30;;
48028;SDS011;33808;37.368;127.108;2023-02-19T04:19:06;1.80;;;1.52;;
48028;SDS011;33808;37.368;127.108;2023-02-19T04:22:13;1.70;;;1.40;;
48028;SDS011;33808;37.368;127.108;2023-02-19T04:25:43;2.70;;;1.50;;
48028;SDS011;33808;37.368;127.108;2023-02-19T04:29:11;2.17;;;1.45;;
48028;SDS011;33808;37.368;127.108;2023-02-19T04:32:40;2.03;;;1.63;;
48028;SDS011;33808;37.368;127.108;2023-02-19T04:36:09;1.50;;;1.13;;
48028;SDS011;33808;37.368;127.108;2023-02-19T04:38:39;2.40;;;1.40;;
48028;SDS011;33808;37.368;127.108;2023-02-19T04:41:09;2.40;;;1.70;;
48028;SDS011;33808;37.368;127.108;2023-02-19T04:43:39;2.13;;;1.73;;
48028;SDS011;33808;37.368;127.108;2023-02-19T04:46:09;3.47;;;1.80;;
48028;SDS011;33808;37.368;127.108;2023-02-19T04:48:38;9.13;;;2.55;;
48028;SDS011;33808;37.368;127.108;2023-02-19T04:51:10;4.97;;;2.30;;
48028;SDS011;33808;37.368;127.108;2023-02-19T04:53:40;7.40;;;2.92;;
48028;SDS011;33808;37.368;127.108;2023-02-19T04:56:11;4.65;;;2.90;;
48028;SDS011;33808;37.368;127.108;2023-02-19T04:58:42;7.00;;;3.40;;
48028;SDS011;33808;37.368;127.108;2023-02-19T05:01:12;6.57;;;3.63;;
48028;SDS011;33808;37.368;127.108;2023-02-19T05:04:41;4.78;;;3.15;;
48028;SDS011;33808;37.368;127.108;2023-02-19T05:08:10;5.20;;;3.30;;
48028;SDS011;33808;37.368;127.108;2023-02-19T05:11:39;4.85;;;3.40;;
48028;SDS011;33808;37.368;127.108;2023-02-19T05:15:07;5.15;;;3.05;;
48028;SDS011;33808;37.368;127.108;2023-02-19T05:18:36;4.43;;;3.38;;
48028;SDS011;33808;37.368;127.108;2023-02-19T05:22:05;5.15;;;3.10;;
48028;SDS011;33808;37.368;127.108;2023-02-19T05:24:34;6.53;;;3.22;;
48028;SDS011;33808;37.368;127.108;2023-02-19T05:28:03;6.40;;;3.10;;
48028;SDS011;33808;37.368;127.108;2023-02-19T05:31:32;4.93;;;2.90;;
48028;SDS011;33808;37.368;127.108;2023-02-19T05:35:01;3.40;;;2.80;;
48028;SDS011;33808;37.368;127.108;2023-02-19T05:38:30;3.40;;;2.13;;
48028;SDS011;33808;37.368;127.108;2023-02-19T05:42:01;3.00;;;2.55;;
48028;SDS011;33808;37.368;127.108;2023-02-19T05:45:30;5.47;;;2.53;;
48028;SDS011;33808;37.368;127.108;2023-02-19T05:49:00;3.28;;;2.20;;
48028;SDS011;33808;37.368;127.108;2023-02-19T05:52:28;5.18;;;2.50;;
48028;SDS011;33808;37.368;127.108;2023-02-19T05:55:57;3.17;;;2.00;;
48028;SDS011;33808;37.368;127.108;2023-02-19T05:58:59;3.63;;;2.53;;
48028;SDS011;33808;37.368;127.108;2023-02-19T06:02:27;2.25;;;1.90;;
48028;SDS011;33808;37.368;127.108;2023-02-19T06:05:56;3.50;;;2.15;;
48028;SDS011;33808;37.368;127.108;2023-02-19T06:09:25;3.78;;;1.98;;
48028;SDS011;33808;37.368;127.108;2023-02-19T06:12:54;2.50;;;1.88;;
48028;SDS011;33808;37.368;127.108;2023-02-19T06:16:22;2.25;;;1.65;;
48028;SDS011;33808;37.368;127.108;2023-02-19T06:19:51;3.40;;;2.10;;
48028;SDS011;33808;37.368;127.108;2023-02-19T06:23:20;2.15;;;1.60;;
48028;SDS011;33808;37.368;127.108;2023-02-19T06:26:49;2.22;;;1.92;;
48028;SDS011;33808;37.368;127.108;2023-02-19T06:30:18;1.90;;;1.75;;
48028;SDS011;33808;37.368;127.108;2023-02-19T06:33:46;2.97;;;2.03;;
48028;SDS011;33808;37.368;127.108;2023-02-19T07:51:20;0.85;;;0.85;;
48028;SDS011;33808;37.368;127.108;2023-02-19T07:53:51;1.10;;;0.90;;
48028;SDS011;33808;37.368;127.108;2023-02-19T07:56:20;1.10;;;1.00;;
48028;SDS011;33808;37.368;127.108;2023-02-19T07:58:50;1.30;;;1.08;;
48028;SDS011;33808;37.368;127.108;2023-02-19T08:01:21;0.75;;;0.70;;
48028;SDS011;33808;37.368;127.108;2023-02-19T08:04:11;1.83;;;1.02;;
48028;SDS011;33808;37.368;127.108;2023-02-19T08:06:41;1.25;;;1.00;;
48028;SDS011;33808;37.368;127.108;2023-02-19T08:09:11;0.80;;;0.80;;
48028;SDS011;33808;37.368;127.108;2023-02-19T08:11:41;1.10;;;1.00;;
48028;SDS011;33808;37.368;127.108;2023-02-19T08:14:29;0.90;;;0.90;;
48028;SDS011;33808;37.368;127.108;2023-02-19T08:16:58;0.80;;;0.80;;
48028;SDS011;33808;37.368;127.108;2023-02-19T08:19:28;4.95;;;1.27;;
48028;SDS011;33808;37.368;127.108;2023-02-19T08:21:57;4.80;;;1.00;;
48028;SDS011;33808;37.368;127.108;2023-02-19T08:24:27;1.27;;;0.90;;
48028;SDS011;33808;37.368;127.108;2023-02-19T08:26:58;1.63;;;1.00;;
48028;SDS011;33808;37.368;127.108;2023-02-19T08:29:28;2.40;;;0.80;;
48028;SDS011;33808;37.368;127.108;2023-02-19T08:31:58;0.80;;;0.75;;
48028;SDS011;33808;37.368;127.108;2023-02-19T08:35:28;0.80;;;0.75;;
48028;SDS011;33808;37.368;127.108;2023-02-19T08:38:56;2.28;;;1.05;;
48028;SDS011;33808;37.368;127.108;2023-02-19T08:42:26;1.42;;;0.82;;
48028;SDS011;33808;37.368;127.108;2023-02-19T08:45:54;0.88;;;0.80;;
48028;SDS011;33808;37.368;127.108;2023-02-19T08:49:26;3.92;;;0.80;;
48028;SDS011;33808;37.368;127.108;2023-02-19T08:52:55;0.75;;;0.70;;
48028;SDS011;33808;37.368;127.108;2023-02-19T08:55:26;0.70;;;0.55;;
48028;SDS011;33808;37.368;127.108;2023-02-19T08:58:55;0.75;;;0.75;;
48028;SDS011;33808;37.368;127.108;2023-02-19T09:02:24;0.98;;;0.88;;
48028;SDS011;33808;37.368;127.108;2023-02-19T09:05:52;1.05;;;0.90;;
48028;SDS011;33808;37.368;127.108;2023-02-19T09:09:21;0.85;;;0.73;;
48028;SDS011;33808;37.368;127.108;2023-02-19T09:12:50;0.70;;;0.70;;
48028;SDS011;33808;37.368;127.108;2023-02-19T09:16:19;1.02;;;0.80;;
48028;SDS011;33808;37.368;127.108;2023-02-19T09:19:47;0.70;;;0.70;;
48028;SDS011;33808;37.368;127.108;2023-02-19T09:23:16;9.35;;;1.45;;
48028;SDS011;33808;37.368;127.108;2023-02-19T09:26:48;1.05;;;0.88;;
48028;SDS011;33808;37.368;127.108;2023-02-19T09:30:14;1.48;;;0.90;;
48028;SDS011;33808;37.368;127.108;2023-02-19T09:33:43;1.33;;;0.90;;
48028;SDS011;33808;37.368;127.108;2023-02-19T09:36:15;2.15;;;0.80;;
48028;SDS011;33808;37.368;127.108;2023-02-19T09:38:46;1.80;;;1.33;;
48028;SDS011;33808;37.368;127.108;2023-02-19T09:42:18;0.90;;;0.90;;
48028;SDS011;33808;37.368;127.108;2023-02-19T09:45:43;1.13;;;1.00;;
48028;SDS011;33808;37.368;127.108;2023-02-19T09:52:06;1.00;;;0.85;;
48028;SDS011;33808;37.368;127.108;2023-02-19T09:55:24;1.35;;;1.08;;
48028;SDS011;33808;37.368;127.108;2023-02-19T10:01:02;0.98;;;0.80;;
48028;SDS011;33808;37.368;127.108;2023-02-19T10:03:53;0.82;;;0.80;;
48028;SDS011;33808;37.368;127.108;2023-02-19T10:06:24;1.50;;;0.80;;
48028;SDS011;33808;37.368;127.108;2023-02-19T10:09:58;2.03;;;0.80;;
48028;SDS011;33808;37.368;127.108;2023-02-19T10:13:20;1.95;;;0.98;;
48028;SDS011;33808;37.368;127.108;2023-02-19T10:16:58;1.40;;;0.90;;
48028;SDS011;33808;37.368;127.108;2023-02-19T10:20:29;1.10;;;1.00;;
48028;SDS011;33808;37.368;127.108;2023-02-19T10:24:01;0.95;;;0.88;;
48028;SDS011;33808;37.368;127.108;2023-02-19T10:27:29;0.82;;;0.80;;
48028;SDS011;33808;37.368;127.108;2023-02-19T10:30:59;1.48;;;1.23;;
48028;SDS011;33808;37.368;127.108;2023-02-19T10:34:27;1.05;;;0.80;;
48028;SDS011;33808;37.368;127.108;2023-02-19T10:37:56;0.98;;;0.70;;
48028;SDS011;33808;37.368;127.108;2023-02-19T10:44:15;1.02;;;0.93;;
48028;SDS011;33808;37.368;127.108;2023-02-19T10:47:45;1.70;;;0.90;;
48028;SDS011;33808;37.368;127.108;2023-02-19T10:50:50;0.98;;;0.88;;
48028;SDS011;33808;37.368;127.108;2023-02-19T10:53:37;2.53;;;0.85;;
48028;SDS011;33808;37.368;127.108;2023-02-19T10:56:15;2.17;;;0.88;;
48028;SDS011;33808;37.368;127.108;2023-02-19T10:58:52;1.88;;;1.20;;
48028;SDS011;33808;37.368;127.108;2023-02-19T11:02:21;2.65;;;0.88;;
48028;SDS011;33808;37.368;127.108;2023-02-19T11:05:56;2.17;;;0.90;;
48028;SDS011;33808;37.368;127.108;2023-02-19T11:09:52;1.13;;;0.90;;
48028;SDS011;33808;37.368;127.108;2023-02-19T11:13:03;1.40;;;0.85;;
48028;SDS011;33808;37.368;127.108;2023-02-19T11:16:13;1.10;;;0.80;;
48028;SDS011;33808;37.368;127.108;2023-02-19T11:18:43;1.40;;;0.90;;
48028;SDS011;33808;37.368;127.108;2023-02-19T11:25:18;1.50;;;1.10;;
48028;SDS011;33808;37.368;127.108;2023-02-19T11:28:45;2.22;;;1.00;;
48028;SDS011;33808;37.368;127.108;2023-02-19T11:35:36;1.08;;;0.90;;
48028;SDS011;33808;37.368;127.108;2023-02-19T11:42:13;0.88;;;0.88;;
48028;SDS011;33808;37.368;127.108;2023-02-19T11:49:02;2.10;;;1.23;;
48028;SDS011;33808;37.368;127.108;2023-02-19T11:51:56;1.48;;;1.10;;
48028;SDS011;33808;37.368;127.108;2023-02-19T12:02:03;1.10;;;1.00;;
48028;SDS011;33808;37.368;127.108;2023-02-19T12:06:14;1.33;;;0.80;;
48028;SDS011;33808;37.368;127.108;2023-02-19T12:27:04;5.57;;;1.08;;
48028;SDS011;33808;37.368;127.108;2023-02-19T12:30:24;1.77;;;0.80;;
48028;SDS011;33808;37.368;127.108;2023-02-19T12:36:26;0.70;;;0.70;;
48028;SDS011;33808;37.368;127.108;2023-02-19T12:45:56;0.50;;;0.40;;
48028;SDS011;33808;37.368;127.108;2023-02-19T12:48:35;0.60;;;0.50;;
48028;SDS011;33808;37.368;127.108;2023-02-19T12:54:22;1.65;;;0.55;;
48028;SDS011;33808;37.368;127.108;2023-02-19T13:00:01;0.75;;;0.50;;
48028;SDS011;33808;37.368;127.108;2023-02-19T13:02:42;0.57;;;0.50;;
48028;SDS011;33808;37.368;127.108;2023-02-19T13:05:37;0.32;;;0.32;;
48028;SDS011;33808;37.368;127.108;2023-02-19T13:08:20;0.40;;;0.40;;
48028;SDS011;33808;37.368;127.108;2023-02-19T13:10:57;0.50;;;0.32;;
48028;SDS011;33808;37.368;127.108;2023-02-19T13:16:22;0.45;;;0.40;;
48028;SDS011;33808;37.368;127.108;2023-02-19T13:19:00;0.43;;;0.43;;
48028;SDS011;33808;37.368;127.108;2023-02-19T13:21:33;0.40;;;0.40;;
48028;SDS011;33808;37.368;127.108;2023-02-19T13:24:43;0.40;;;0.40;;
48028;SDS011;33808;37.368;127.108;2023-02-19T13:30:23;0.40;;;0.40;;
48028;SDS011;33808;37.368;127.108;2023-02-19T13:38:08;0.28;;;0.28;;
48028;SDS011;33808;37.368;127.108;2023-02-19T13:40:40;0.73;;;0.30;;
48028;SDS011;33808;37.368;127.108;2023-02-19T13:46:15;0.47;;;0.30;;
48028;SDS011;33808;37.368;127.108;2023-02-19T13:48:45;0.55;;;0.35;;
48028;SDS011;33808;37.368;127.108;2023-02-19T14:04:24;3.78;;;0.22;;
48028;SDS011;33808;37.368;127.108;2023-02-19T14:14:41;3.40;;;0.20;;
48028;SDS011;33808;37.368;127.108;2023-02-19T14:33:54;0.28;;;0.28;;
48028;SDS011;33808;37.368;127.108;2023-02-19T14:36:31;0.40;;;0.38;;
48028;SDS011;33808;37.368;127.108;2023-02-19T14:39:04;0.70;;;0.30;;
48028;SDS011;33808;37.368;127.108;2023-02-19T14:41:39;0.38;;;0.32;;
48028;SDS011;33808;37.368;127.108;2023-02-19T14:44:19;0.35;;;0.35;;
48028;SDS011;33808;37.368;127.108;2023-02-19T14:47:12;0.68;;;0.20;;
48028;SDS011;33808;37.368;127.108;2023-02-19T14:49:46;0.20;;;0.20;;
48028;SDS011;33808;37.368;127.108;2023-02-19T14:53:14;0.28;;;0.28;;
48028;SDS011;33808;37.368;127.108;2023-02-19T14:56:43;0.20;;;0.20;;
48028;SDS011;33808;37.368;127.108;2023-02-19T15:00:22;0.20;;;0.20;;
48028;SDS011;33808;37.368;127.108;2023-02-19T15:03:52;0.20;;;0.20;;
48028;SDS011;33808;37.368;127.108;2023-02-19T15:07:22;0.43;;;0.30;;
48028;SDS011;33808;37.368;127.108;2023-02-19T15:10:47;0.20;;;0.20;;
48028;SDS011;33808;37.368;127.108;2023-02-19T15:14:18;0.75;;;0.32;;
48028;SDS011;33808;37.368;127.108;2023-02-19T15:17:44;1.10;;;0.22;;
48028;SDS011;33808;37.368;127.108;2023-02-19T15:21:17;0.82;;;0.40;;
48028;SDS011;33808;37.368;127.108;2023-02-19T15:23:58;0.30;;;0.30;;
48028;SDS011;33808;37.368;127.108;2023-02-19T15:29:23;0.70;;;0.70;;
48028;SDS011;33808;37.368;127.108;2023-02-19T15:32:54;0.30;;;0.30;;
48028;SDS011;33808;37.368;127.108;2023-02-19T15:36:26;8.95;;;0.43;;
48028;SDS011;33808;37.368;127.108;2023-02-19T15:39:53;0.30;;;0.30;;
48028;SDS011;33808;37.368;127.108;2023-02-19T15:42:59;0.20;;;0.20;;
48028;SDS011;33808;37.368;127.108;2023-02-19T15:46:18;0.20;;;0.20;;
48028;SDS011;33808;37.368;127.108;2023-02-19T15:53:07;0.30;;;0.30;;
48028;SDS011;33808;37.368;127.108;2023-02-19T15:56:34;0.30;;;0.20;;
48028;SDS011;33808;37.368;127.108;2023-02-19T15:59:42;0.20;;;0.20;;
48028;SDS011;33808;37.368;127.108;2023-02-19T16:02:10;0.20;;;0.20;;
48028;SDS011;33808;37.368;127.108;2023-02-19T16:04:42;0.50;;;0.30;;
48028;SDS011;33808;37.368;127.108;2023-02-19T16:12:53;0.30;;;0.30;;
48028;SDS011;33808;37.368;127.108;2023-02-19T16:15:24;0.30;;;0.30;;
48028;SDS011;33808;37.368;127.108;2023-02-19T16:17:56;0.25;;;0.20;;
48028;SDS011;33808;37.368;127.108;2023-02-19T16:23:02;0.20;;;0.20;;
48028;SDS011;33808;37.368;127.108;2023-02-19T16:25:39;0.38;;;0.30;;
48028;SDS011;33808;37.368;127.108;2023-02-19T16:30:56;1.98;;;0.38;;
48028;SDS011;33808;37.368;127.108;2023-02-19T16:36:23;0.30;;;0.30;;
48028;SDS011;33808;37.368;127.108;2023-02-19T16:47:11;0.40;;;0.40;;
48028;SDS011;33808;37.368;127.108;2023-02-19T16:49:51;0.20;;;0.20;;
48028;SDS011;33808;37.368;127.108;2023-02-19T16:52:20;0.30;;;0.30;;
48028;SDS011;33808;37.368;127.108;2023-02-19T16:54:50;0.20;;;0.20;;
48028;SDS011;33808;37.368;127.108;2023-02-19T16:57:19;0.65;;;0.28;;
48028;SDS011;33808;37.368;127.108;2023-02-19T16:59:49;0.52;;;0.43;;
48028;SDS011;33808;37.368;127.108;2023-02-19T17:02:20;0.43;;;0.30;;
48028;SDS011;33808;37.368;127.108;2023-02-19T17:04:51;0.30;;;0.30;;
48028;SDS011;33808;37.368;127.108;2023-02-19T17:07:22;0.65;;;0.30;;
48028;SDS011;33808;37.368;127.108;2023-02-19T17:09:54;0.25;;;0.25;;
48028;SDS011;33808;37.368;127.108;2023-02-19T17:12:24;0.20;;;0.20;;
48028;SDS011;33808;37.368;127.108;2023-02-19T17:14:54;0.50;;;0.40;;
48028;SDS011;33808;37.368;127.108;2023-02-19T17:17:23;0.20;;;0.20;;
48028;SDS011;33808;37.368;127.108;2023-02-19T17:19:53;0.25;;;0.25;;
48028;SDS011;33808;37.368;127.108;2023-02-19T17:22:23;0.30;;;0.30;;
48028;SDS011;33808;37.368;127.108;2023-02-19T17:24:53;0.35;;;0.35;;
48028;SDS011;33808;37.368;127.108;2023-02-19T17:27:23;0.40;;;0.30;;
48028;SDS011;33808;37.368;127.108;2023-02-19T17:29:53;0.20;;;0.20;;
48028;SDS011;33808;37.368;127.108;2023-02-19T17:32:22;0.20;;;0.20;;
48028;SDS011;33808;37.368;127.108;2023-02-19T17:34:52;0.30;;;0.30;;
48028;SDS011;33808;37.368;127.108;2023-02-19T17:37:22;0.47;;;0.40;;
48028;SDS011;33808;37.368;127.108;2023-02-19T17:39:52;1.15;;;0.40;;
48028;SDS011;33808;37.368;127.108;2023-02-19T17:42:21;0.40;;;0.30;;
48028;SDS011;33808;37.368;127.108;2023-02-19T17:44:53;0.40;;;0.40;;
48028;SDS011;33808;37.368;127.108;2023-02-19T17:47:22;0.25;;;0.25;;
48028;SDS011;33808;37.368;127.108;2023-02-19T17:49:53;0.90;;;0.30;;
48028;SDS011;33808;37.368;127.108;2023-02-19T17:52:23;0.38;;;0.35;;
48028;SDS011;33808;37.368;127.108;2023-02-19T17:54:55;0.25;;;0.25;;
48028;SDS011;33808;37.368;127.108;2023-02-19T17:57:24;0.28;;;0.28;;
48028;SDS011;33808;37.368;127.108;2023-02-19T18:00:00;1.80;;;0.30;;
48028;SDS011;33808;37.368;127.108;2023-02-19T18:02:31;0.30;;;0.30;;
48028;SDS011;33808;37.368;127.108;2023-02-19T18:05:01;0.28;;;0.28;;
48028;SDS011;33808;37.368;127.108;2023-02-19T18:07:31;0.28;;;0.20;;
48028;SDS011;33808;37.368;127.108;2023-02-19T18:10:02;0.40;;;0.30;;
48028;SDS011;33808;37.368;127.108;2023-02-19T18:12:32;0.30;;;0.30;;
48028;SDS011;33808;37.368;127.108;2023-02-19T18:15:02;0.43;;;0.30;;
48028;SDS011;33808;37.368;127.108;2023-02-19T18:17:32;0.30;;;0.30;;
48028;SDS011;33808;37.368;127.108;2023-02-19T18:20:02;0.20;;;0.20;;
48028;SDS011;33808;37.368;127.108;2023-02-19T18:22:32;0.30;;;0.25;;
48028;SDS011;33808;37.368;127.108;2023-02-19T18:25:01;0.45;;;0.40;;
48028;SDS011;33808;37.368;127.108;2023-02-19T18:27:31;0.30;;;0.30;;
48028;SDS011;33808;37.368;127.108;2023-02-19T18:30:01;0.20;;;0.20;;
48028;SDS011;33808;37.368;127.108;2023-02-19T18:32:31;0.30;;;0.30;;
48028;SDS011;33808;37.368;127.108;2023-02-19T18:35:00;1.65;;;0.30;;
48028;SDS011;33808;37.368;127.108;2023-02-19T18:37:31;0.30;;;0.30;;
48028;SDS011;33808;37.368;127.108;2023-02-19T18:40:02;0.40;;;0.20;;
48028;SDS011;33808;37.368;127.108;2023-02-19T18:42:32;0.20;;;0.20;;
48028;SDS011;33808;37.368;127.108;2023-02-19T18:45:02;0.20;;;0.20;;
48028;SDS011;33808;37.368;127.108;2023-02-19T18:47:32;0.32;;;0.20;;
48028;SDS011;33808;37.368;127.108;2023-02-19T18:50:02;0.40;;;0.20;;
48028;SDS011;33808;37.368;127.108;2023-02-19T18:52:36;0.20;;;0.20;;
48028;SDS011;33808;37.368;127.108;2023-02-19T18:55:06;0.25;;;0.20;;
48028;SDS011;33808;37.368;127.108;2023-02-19T18:57:37;0.30;;;0.20;;
48028;SDS011;33808;37.368;127.108;2023-02-19T19:00:07;0.20;;;0.20;;
48028;SDS011;33808;37.368;127.108;2023-02-19T19:02:37;1.48;;;0.22;;
48028;SDS011;33808;37.368;127.108;2023-02-19T19:05:16;0.30;;;0.20;;
48028;SDS011;33808;37.368;127.108;2023-02-19T19:07:53;0.25;;;0.20;;
48028;SDS011;33808;37.368;127.108;2023-02-19T19:10:26;0.40;;;0.30;;
48028;SDS011;33808;37.368;127.108;2023-02-19T19:12:57;0.20;;;0.20;;
48028;SDS011;33808;37.368;127.108;2023-02-19T19:15:27;0.57;;;0.30;;
48028;SDS011;33808;37.368;127.108;2023-02-19T19:17:57;0.30;;;0.30;;
48028;SDS011;33808;37.368;127.108;2023-02-19T19:20:27;0.20;;;0.20;;
48028;SDS011;33808;37.368;127.108;2023-02-19T19:22:56;0.30;;;0.30;;
48028;SDS011;33808;37.368;127.108;2023-02-19T19:25:26;0.20;;;0.20;;
48028;SDS011;33808;37.368;127.108;2023-02-19T19:27:55;0.28;;;0.28;;
48028;SDS011;33808;37.368;127.108;2023-02-19T19:30:24;0.20;;;0.20;;
48028;SDS011;33808;37.368;127.108;2023-02-19T19:32:54;0.38;;;0.20;;
48028;SDS011;33808;37.368;127.108;2023-02-19T19:35:25;0.30;;;0.30;;
48028;SDS011;33808;37.368;127.108;2023-02-19T19:37:55;0.20;;;0.20;;
48028;SDS011;33808;37.368;127.108;2023-02-19T19:40:25;0.57;;;0.30;;
48028;SDS011;33808;37.368;127.108;2023-02-19T19:42:55;0.50;;;0.28;;
48028;SDS011;33808;37.368;127.108;2023-02-19T19:45:25;0.63;;;0.30;;
48028;SDS011;33808;37.368;127.108;2023-02-19T19:47:55;0.20;;;0.20;;
48028;SDS011;33808;37.368;127.108;2023-02-19T19:50:24;0.52;;;0.25;;
48028;SDS011;33808;37.368;127.108;2023-02-19T19:52:54;0.20;;;0.20;;
48028;SDS011;33808;37.368;127.108;2023-02-19T19:55:23;0.20;;;0.20;;
48028;SDS011;33808;37.368;127.108;2023-02-19T19:57:53;0.20;;;0.20;;
48028;SDS011;33808;37.368;127.108;2023-02-19T20:00:23;0.30;;;0.20;;
48028;SDS011;33808;37.368;127.108;2023-02-19T20:02:53;0.85;;;0.30;;
48028;SDS011;33808;37.368;127.108;2023-02-19T20:05:22;0.55;;;0.30;;
48028;SDS011;33808;37.368;127.108;2023-02-19T20:07:53;1.10;;;0.25;;
48028;SDS011;33808;37.368;127.108;2023-02-19T20:10:23;0.20;;;0.20;;
48028;SDS011;33808;37.368;127.108;2023-02-19T20:12:52;0.40;;;0.20;;
48028;SDS011;33808;37.368;127.108;2023-02-19T20:15:22;0.30;;;0.30;;
48028;SDS011;33808;37.368;127.108;2023-02-19T20:17:51;0.50;;;0.20;;
48028;SDS011;33808;37.368;127.108;2023-02-19T20:20:21;0.77;;;0.30;;
48028;SDS011;33808;37.368;127.108;2023-02-19T20:22:51;0.75;;;0.63;;
48028;SDS011;33808;37.368;127.108;2023-02-19T20:25:21;2.00;;;0.90;;
48028;SDS011;33808;37.368;127.108;2023-02-19T20:27:52;1.60;;;0.95;;
48028;SDS011;33808;37.368;127.108;2023-02-19T20:30:22;3.58;;;1.10;;
48028;SDS011;33808;37.368;127.108;2023-02-19T20:32:52;4.53;;;1.30;;
48028;SDS011;33808;37.368;127.108;2023-02-19T20:35:22;6.47;;;1.58;;
48028;SDS011;33808;37.368;127.108;2023-02-19T20:37:55;7.28;;;1.95;;
48028;SDS011;33808;37.368;127.108;2023-02-19T20:40:25;7.97;;;1.95;;
48028;SDS011;33808;37.368;127.108;2023-02-19T20:42:57;14.10;;;2.20;;
48028;SDS011;33808;37.368;127.108;2023-02-19T20:45:28;9.45;;;1.60;;
48028;SDS011;33808;37.368;127.108;2023-02-19T20:47:58;6.00;;;1.40;;
48028;SDS011;33808;37.368;127.108;2023-02-19T20:50:28;5.68;;;1.10;;
48028;SDS011;33808;37.368;127.108;2023-02-19T20:52:58;4.88;;;1.55;;
48028;SDS011;33808;37.368;127.108;2023-02-19T20:55:28;1.85;;;0.98;;
48028;SDS011;33808;37.368;127.108;2023-02-19T20:57:59;3.13;;;1.10;;
48028;SDS011;33808;37.368;127.108;2023-02-19T21:00:29;5.75;;;1.02;;
48028;SDS011;33808;37.368;127.108;2023-02-19T21:02:58;1.33;;;0.70;;